createdAt,value
2023-10-22T00:02:21.469Z,16.72
2023-10-22T00:04:48.453Z,16.88
2023-10-22T00:07:16.113Z,16.69
2023-10-22T00:09:43.118Z,16.73
2023-10-22T00:12:10.342Z,16.83
2023-10-22T00:14:38.473Z,16.84
2023-10-22T00:17:05.685Z,16.72
2023-10-22T00:19:46.161Z,16.74
2023-10-22T00:22:15.532Z,16.85
2023-10-22T00:24:42.767Z,16.67
2023-10-22T00:27:09.730Z,16.46
2023-10-22T00:29:36.666Z,16.60
2023-10-22T00:32:03.703Z,16.63
2023-10-22T00:34:31.236Z,16.74
2023-10-22T00:36:58.423Z,16.74
2023-10-22T00:39:25.520Z,16.41
2023-10-22T00:41:52.728Z,16.58
2023-10-22T00:44:19.893Z,16.29
2023-10-22T00:46:48.421Z,16.47
2023-10-22T00:49:18.061Z,16.38
2023-10-22T00:51:46.414Z,16.50
2023-10-22T00:54:16.087Z,16.54
2023-10-22T00:56:43.941Z,16.38
2023-10-22T00:59:15.509Z,16.35
2023-10-22T01:01:44.092Z,16.15
2023-10-22T01:04:12.277Z,16.20
2023-10-22T01:06:40.263Z,15.99
2023-10-22T01:09:11.352Z,16.04
2023-10-22T01:11:56.519Z,15.81
2023-10-22T01:14:23.715Z,15.92
2023-10-22T01:16:50.476Z,15.83
2023-10-22T01:19:17.618Z,15.70
2023-10-22T01:21:45.005Z,15.86
2023-10-22T01:24:11.911Z,15.60
2023-10-22T01:26:42.953Z,15.71
2023-10-22T01:29:10.130Z,15.85
2023-10-22T01:31:37.474Z,15.73
2023-10-22T01:34:05.260Z,15.61
2023-10-22T01:36:32.167Z,15.56
2023-10-22T01:38:59.650Z,15.46
2023-10-22T01:41:27.393Z,15.60
2023-10-22T01:43:55.244Z,15.57
2023-10-22T01:46:22.320Z,15.33
2023-10-22T01:48:49.539Z,15.51
2023-10-22T01:51:16.579Z,15.44
2023-10-22T01:53:44.003Z,15.40
2023-10-22T01:56:11.071Z,15.42
2023-10-22T01:58:38.352Z,15.29
2023-10-22T02:01:05.725Z,15.31
2023-10-22T02:03:36.960Z,15.18
2023-10-22T02:06:15.022Z,15.19
2023-10-22T02:08:42.843Z,15.12
2023-10-22T02:11:11.330Z,15.15
2023-10-22T02:13:39.177Z,14.94
2023-10-22T02:16:06.345Z,15.07
2023-10-22T02:18:35.327Z,15.01
2023-10-22T02:21:04.766Z,14.98
2023-10-22T02:23:32.077Z,14.90
2023-10-22T02:25:59.339Z,14.96
2023-10-22T02:28:26.246Z,14.83
2023-10-22T02:30:53.346Z,14.72
2023-10-22T02:33:20.362Z,14.94
2023-10-22T02:35:47.736Z,14.72
2023-10-22T02:38:16.991Z,14.74
2023-10-22T02:40:46.216Z,14.59
2023-10-22T02:43:13.225Z,14.67
2023-10-22T02:45:52.892Z,14.59
2023-10-22T02:48:20.753Z,14.61
2023-10-22T02:50:48.404Z,14.40
2023-10-22T02:53:15.634Z,14.56
2023-10-22T02:55:42.713Z,14.62
2023-10-22T02:58:09.795Z,14.65
2023-10-22T03:00:37.788Z,14.55
2023-10-22T03:03:05.345Z,14.46
2023-10-22T03:05:37.852Z,14.62
2023-10-22T03:08:05.209Z,14.59
2023-10-22T03:10:33.499Z,14.69
2023-10-22T03:13:02.174Z,14.68
2023-10-22T03:15:29.470Z,14.52
2023-10-22T03:17:58.596Z,14.73
2023-10-22T03:20:26.435Z,14.66
2023-10-22T03:22:54.879Z,14.42
2023-10-22T03:25:23.249Z,14.40
2023-10-22T03:27:51.098Z,14.57
2023-10-22T03:30:18.737Z,14.25
2023-10-22T03:32:46.511Z,14.19
2023-10-22T03:35:14.495Z,14.52
2023-10-22T03:37:42.446Z,14.31
2023-10-22T03:40:11.342Z,14.27
2023-10-22T03:42:38.800Z,14.41
2023-10-22T03:45:08.080Z,14.46
2023-10-22T03:47:35.225Z,14.43
2023-10-22T03:50:02.974Z,14.43
2023-10-22T03:52:30.638Z,14.20
2023-10-22T03:54:58.601Z,14.33
2023-10-22T03:57:26.429Z,14.19
2023-10-22T03:59:53.656Z,14.42
2023-10-22T04:02:20.583Z,14.46
2023-10-22T04:04:47.451Z,14.36
2023-10-22T04:07:14.446Z,14.31
2023-10-22T04:09:41.814Z,14.16
2023-10-22T04:12:09.641Z,14.31
2023-10-22T04:14:37.127Z,14.13
2023-10-22T04:17:04.469Z,14.13
2023-10-22T04:19:31.466Z,14.42
2023-10-22T04:21:58.471Z,14.40
2023-10-22T04:24:25.534Z,14.28
2023-10-22T04:26:52.552Z,14.43
2023-10-22T04:29:19.542Z,14.28
2023-10-22T04:31:46.695Z,14.20
2023-10-22T04:34:13.774Z,14.20
2023-10-22T04:36:40.769Z,14.08
2023-10-22T04:39:07.927Z,14.02
2023-10-22T04:41:34.892Z,14.19
2023-10-22T04:44:02.848Z,14.01
2023-10-22T04:46:29.803Z,14.08
2023-10-22T04:48:57.178Z,14.35
2023-10-22T04:51:25.338Z,14.38
2023-10-22T04:53:52.346Z,14.28
2023-10-22T04:56:19.439Z,14.29
2023-10-22T04:58:46.263Z,14.19
2023-10-22T05:01:13.293Z,14.37
2023-10-22T05:03:40.866Z,14.73
2023-10-22T05:06:10.378Z,14.77
2023-10-22T05:08:39.442Z,14.92
2023-10-22T05:11:09.826Z,14.86
2023-10-22T05:13:37.009Z,15.05
2023-10-22T05:16:04.239Z,14.87
2023-10-22T05:18:31.347Z,15.03
2023-10-22T05:21:03.598Z,15.32
2023-10-22T05:23:30.482Z,15.23
2023-10-22T05:26:08.549Z,15.37
2023-10-22T05:28:35.708Z,15.47
2023-10-22T05:31:02.796Z,15.61
2023-10-22T05:33:30.039Z,15.08
2023-10-22T05:35:57.545Z,15.86
2023-10-22T05:38:24.719Z,15.88
2023-10-22T05:40:52.010Z,16.05
2023-10-22T05:43:19.087Z,16.21
2023-10-22T05:45:46.481Z,16.34
2023-10-22T05:48:13.718Z,16.38
2023-10-22T05:50:40.891Z,16.69
2023-10-22T05:53:09.085Z,16.88
2023-10-22T05:55:36.442Z,16.92
2023-10-22T05:58:04.000Z,17.06
2023-10-22T06:00:31.115Z,17.23
2023-10-22T06:02:58.436Z,17.27
2023-10-22T06:05:25.672Z,17.28
2023-10-22T06:07:54.254Z,16.89
2023-10-22T06:10:21.311Z,17.61
2023-10-22T06:12:50.960Z,17.80
2023-10-22T06:15:18.045Z,18.00
2023-10-22T06:17:45.989Z,17.97
2023-10-22T06:20:13.123Z,17.86
2023-10-22T06:22:40.119Z,18.16
2023-10-22T06:25:07.579Z,18.47
2023-10-22T06:27:34.525Z,18.66
2023-10-22T06:30:01.910Z,18.30
2023-10-22T06:32:29.088Z,18.43
2023-10-22T06:34:56.263Z,18.67
2023-10-22T06:37:23.282Z,18.66
2023-10-22T06:39:52.376Z,18.71
2023-10-22T06:42:19.662Z,19.18
2023-10-22T06:44:46.653Z,18.95
2023-10-22T06:47:13.768Z,19.28
2023-10-22T06:49:40.762Z,19.28
2023-10-22T06:52:07.717Z,19.11
2023-10-22T06:54:34.862Z,18.82
2023-10-22T06:57:01.936Z,19.31
2023-10-22T06:59:29.869Z,19.36
2023-10-22T07:01:56.972Z,19.41
2023-10-22T07:04:24.181Z,19.81
2023-10-22T07:06:51.315Z,19.76
2023-10-22T07:09:18.498Z,19.67
2023-10-22T07:11:47.011Z,20.05
2023-10-22T07:14:14.342Z,20.01
2023-10-22T07:16:42.043Z,20.10
2023-10-22T07:19:09.080Z,20.18
2023-10-22T07:21:36.350Z,20.47
2023-10-22T07:24:03.524Z,20.58
2023-10-22T07:26:31.041Z,20.70
2023-10-22T07:28:58.184Z,20.83
2023-10-22T07:31:25.274Z,20.92
2023-10-22T07:33:52.635Z,20.60
2023-10-22T07:36:19.723Z,21.13
2023-10-22T07:38:47.105Z,21.11
2023-10-22T07:41:16.243Z,20.87
2023-10-22T07:43:43.455Z,21.37
2023-10-22T07:46:12.272Z,21.05
2023-10-22T07:48:39.457Z,21.55
2023-10-22T07:51:15.341Z,21.60
2023-10-22T07:53:42.774Z,21.38
2023-10-22T07:56:11.387Z,21.59
2023-10-22T07:58:40.521Z,21.74
2023-10-22T08:01:08.061Z,21.91
2023-10-22T08:03:35.906Z,21.50
2023-10-22T08:06:04.564Z,21.59
2023-10-22T08:08:32.119Z,21.73
2023-10-22T08:11:04.177Z,21.75
2023-10-22T08:13:31.766Z,22.05
2023-10-22T08:15:58.719Z,22.42
2023-10-22T08:18:25.982Z,22.50
2023-10-22T08:20:53.386Z,22.10
2023-10-22T08:23:20.527Z,22.65
2023-10-22T08:25:54.548Z,22.61
2023-10-22T08:28:21.662Z,22.73
2023-10-22T08:30:49.460Z,22.71
2023-10-22T08:33:16.976Z,22.78
2023-10-22T08:35:44.457Z,22.80
2023-10-22T08:38:12.147Z,22.40
2023-10-22T08:40:42.834Z,22.62
2023-10-22T08:43:20.027Z,22.62
2023-10-22T08:45:50.195Z,22.53
2023-10-22T08:48:18.725Z,22.95
2023-10-22T08:50:48.404Z,23.03
2023-10-22T08:53:16.650Z,23.58
2023-10-22T08:55:49.078Z,23.14
2023-10-22T08:58:18.071Z,23.45
2023-10-22T09:00:46.902Z,23.68
2023-10-22T09:03:15.914Z,23.74
2023-10-22T09:05:43.840Z,23.69
2023-10-22T09:08:11.705Z,23.77
2023-10-22T09:10:39.417Z,23.87
2023-10-22T09:13:15.916Z,23.92
2023-10-22T09:15:45.561Z,23.70
2023-10-22T09:18:13.669Z,24.41
2023-10-22T09:20:42.520Z,24.85
2023-10-22T09:23:20.588Z,25.12
2023-10-22T09:25:57.474Z,25.21
2023-10-22T09:28:26.600Z,25.53
2023-10-22T09:31:05.377Z,25.99
2023-10-22T09:33:34.083Z,26.48
2023-10-22T09:36:09.339Z,26.43
2023-10-22T09:38:50.497Z,27.20
2023-10-22T09:41:29.843Z,27.35
2023-10-22T09:44:02.097Z,27.39
2023-10-22T09:46:33.990Z,27.31
2023-10-22T09:49:05.900Z,27.34
2023-10-22T09:51:35.841Z,27.41
2023-10-22T09:54:08.141Z,27.56
2023-10-22T09:56:51.989Z,27.75
2023-10-22T09:59:24.022Z,27.83
2023-10-22T10:01:52.708Z,27.93
2023-10-22T10:04:22.351Z,27.61
2023-10-22T10:06:51.061Z,27.55
2023-10-22T10:09:18.268Z,27.68
2023-10-22T10:11:46.000Z,28.00
2023-10-22T10:14:33.642Z,27.65
2023-10-22T10:17:03.590Z,27.64
2023-10-22T10:19:31.062Z,28.10
2023-10-22T10:21:58.360Z,28.48
2023-10-22T10:24:29.611Z,28.60
2023-10-22T10:26:57.518Z,28.66
2023-10-22T10:29:26.826Z,28.46
2023-10-22T10:31:56.594Z,28.54
2023-10-22T10:34:33.949Z,28.89
2023-10-22T10:37:23.129Z,28.87
2023-10-22T10:39:54.855Z,29.00
2023-10-22T10:42:30.967Z,29.00
2023-10-22T10:45:02.306Z,29.19
2023-10-22T10:47:37.687Z,28.96
2023-10-22T10:50:13.325Z,28.86
2023-10-22T10:52:43.601Z,29.02
2023-10-22T10:55:19.805Z,28.99
2023-10-22T10:57:51.708Z,28.99
2023-10-22T11:00:25.771Z,29.26
2023-10-22T11:02:54.324Z,28.86
2023-10-22T11:05:41.341Z,29.18
2023-10-22T11:08:23.458Z,28.60
2023-10-22T11:10:50.802Z,29.19
2023-10-22T11:13:27.096Z,29.47
2023-10-22T11:16:04.037Z,29.13
2023-10-22T11:18:31.128Z,29.45
2023-10-22T11:20:58.653Z,29.45
2023-10-22T11:23:26.008Z,29.26
2023-10-22T11:25:53.407Z,29.11
2023-10-22T11:28:20.622Z,29.24
2023-10-22T11:30:47.837Z,29.02
2023-10-22T11:33:36.085Z,28.66
2023-10-22T11:36:18.071Z,28.55
2023-10-22T11:38:45.267Z,28.53
2023-10-22T11:41:12.308Z,28.53
2023-10-22T11:43:44.493Z,28.75
2023-10-22T11:46:12.515Z,28.79
2023-10-22T11:48:45.917Z,28.53
2023-10-22T11:51:13.163Z,28.68
2023-10-22T11:53:42.376Z,28.76
2023-10-22T11:56:09.820Z,28.48
2023-10-22T11:58:37.187Z,28.50
2023-10-22T12:01:04.223Z,28.62
2023-10-22T12:03:31.154Z,28.52
2023-10-22T12:05:58.362Z,28.60
2023-10-22T12:08:25.470Z,28.90
2023-10-22T12:10:52.675Z,28.95
2023-10-22T12:13:19.728Z,29.00
2023-10-22T12:15:46.961Z,28.40
2023-10-22T12:18:14.649Z,28.86
2023-10-22T12:20:41.790Z,28.09
2023-10-22T12:23:12.411Z,28.78
2023-10-22T12:25:39.871Z,28.40
2023-10-22T12:28:07.369Z,28.35
2023-10-22T12:30:36.061Z,28.34
2023-10-22T12:33:03.637Z,28.45
2023-10-22T12:35:31.425Z,28.45
2023-10-22T12:37:58.847Z,28.62
2023-10-22T12:40:25.900Z,28.34
2023-10-22T12:42:53.174Z,28.49
2023-10-22T12:45:20.832Z,28.47
2023-10-22T12:47:47.835Z,28.31
2023-10-22T12:50:15.193Z,28.65
2023-10-22T12:52:42.164Z,28.49
2023-10-22T12:55:09.575Z,28.73
2023-10-22T12:57:36.923Z,28.76
2023-10-22T13:00:13.924Z,28.67
2023-10-22T13:02:42.281Z,28.88
2023-10-22T13:05:09.569Z,28.49
2023-10-22T13:07:37.686Z,28.61
2023-10-22T13:10:06.124Z,28.43
2023-10-22T13:12:33.681Z,28.69
2023-10-22T13:15:01.324Z,28.73
2023-10-22T13:17:29.388Z,28.66
2023-10-22T13:19:56.441Z,28.76
2023-10-22T13:22:23.930Z,28.52
2023-10-22T13:24:51.103Z,28.62
2023-10-22T13:27:18.502Z,28.02
2023-10-22T13:29:45.614Z,28.35
2023-10-22T13:32:13.921Z,28.40
2023-10-22T13:34:42.422Z,28.06
2023-10-22T13:37:09.501Z,28.33
2023-10-22T13:39:36.645Z,28.34
2023-10-22T13:42:04.188Z,28.20
2023-10-22T13:44:31.142Z,27.91
2023-10-22T13:46:58.481Z,27.83
2023-10-22T13:49:25.823Z,27.92
2023-10-22T13:51:52.928Z,27.81
2023-10-22T13:54:19.952Z,28.01
2023-10-22T13:56:47.543Z,27.93
2023-10-22T13:59:16.162Z,27.90
2023-10-22T14:01:43.308Z,27.54
2023-10-22T14:04:10.792Z,27.53
2023-10-22T14:06:37.953Z,27.61
2023-10-22T14:09:05.217Z,27.27
2023-10-22T14:11:32.253Z,27.25
2023-10-22T14:13:59.837Z,27.53
2023-10-22T14:16:27.321Z,27.54
2023-10-22T14:18:54.779Z,27.53
2023-10-22T14:21:23.138Z,27.59
2023-10-22T14:23:50.274Z,27.29
2023-10-22T14:26:17.805Z,27.01
2023-10-22T14:28:44.859Z,27.30
2023-10-22T14:31:12.337Z,27.21
2023-10-22T14:33:39.495Z,26.81
2023-10-22T14:36:09.842Z,27.05
2023-10-22T14:38:36.793Z,26.58
2023-10-22T14:41:07.280Z,26.90
2023-10-22T14:43:34.475Z,26.45
2023-10-22T14:46:02.352Z,26.66
2023-10-22T14:48:30.198Z,26.37
2023-10-22T14:51:02.338Z,26.26
2023-10-22T14:53:30.401Z,26.15
2023-10-22T14:55:58.751Z,26.30
2023-10-22T14:58:26.277Z,26.34
2023-10-22T15:00:53.518Z,26.17
2023-10-22T15:03:21.406Z,26.11
2023-10-22T15:05:50.279Z,25.64
2023-10-22T15:08:17.923Z,25.32
2023-10-22T15:10:46.098Z,25.46
2023-10-22T15:13:13.981Z,25.61
2023-10-22T15:15:48.404Z,25.19
2023-10-22T15:18:16.628Z,25.37
2023-10-22T15:20:49.246Z,25.22
2023-10-22T15:23:18.687Z,25.00
2023-10-22T15:25:50.871Z,24.74
2023-10-22T15:28:18.820Z,24.77
2023-10-22T15:30:47.568Z,24.79
2023-10-22T15:33:15.375Z,24.67
2023-10-22T15:35:42.377Z,24.26
2023-10-22T15:38:11.676Z,24.43
2023-10-22T15:40:38.589Z,24.36
2023-10-22T15:43:05.580Z,23.76
2023-10-22T15:45:33.217Z,24.06
2023-10-22T15:48:02.649Z,24.08
2023-10-22T15:50:30.565Z,23.69
2023-10-22T15:52:59.734Z,23.65
2023-10-22T15:55:26.625Z,23.67
2023-10-22T15:57:53.614Z,23.73
2023-10-22T16:00:22.946Z,23.59
2023-10-22T16:02:50.385Z,23.61
2023-10-22T16:05:18.380Z,23.46
2023-10-22T16:07:45.394Z,23.15
2023-10-22T16:10:12.823Z,23.41
2023-10-22T16:12:40.779Z,23.17
2023-10-22T16:15:09.070Z,23.40
2023-10-22T16:17:42.833Z,22.80
2023-10-22T16:20:11.302Z,23.26
2023-10-22T16:22:39.027Z,22.98
2023-10-22T16:25:06.674Z,22.89
2023-10-22T16:27:34.272Z,22.80
2023-10-22T16:30:01.622Z,22.52
2023-10-22T16:32:28.940Z,22.69
2023-10-22T16:34:56.086Z,22.76
2023-10-22T16:37:23.171Z,22.33
2023-10-22T16:39:50.378Z,22.48
2023-10-22T16:42:17.234Z,22.56
2023-10-22T16:44:44.176Z,22.48
2023-10-22T16:47:11.259Z,21.79
2023-10-22T16:49:38.584Z,22.08
2023-10-22T16:52:05.965Z,22.39
2023-10-22T16:54:33.097Z,22.14
2023-10-22T16:57:02.005Z,21.92
2023-10-22T16:59:29.006Z,22.29
2023-10-22T17:01:56.263Z,21.85
2023-10-22T17:04:23.516Z,22.07
2023-10-22T17:06:51.373Z,22.04
2023-10-22T17:09:18.500Z,21.94
2023-10-22T17:11:45.592Z,21.81
2023-10-22T17:14:13.286Z,21.76
2023-10-22T17:16:41.546Z,21.68
2023-10-22T17:19:08.721Z,21.48
2023-10-22T17:21:36.160Z,21.43
2023-10-22T17:24:03.275Z,21.29
2023-10-22T17:26:30.272Z,21.32
2023-10-22T17:28:57.527Z,20.84
2023-10-22T17:31:25.693Z,20.57
2023-10-22T17:34:04.805Z,21.07
2023-10-22T17:36:33.039Z,21.03
2023-10-22T17:39:00.225Z,21.04
2023-10-22T17:41:27.584Z,21.03
2023-10-22T17:43:54.633Z,20.97
2023-10-22T17:46:21.755Z,20.35
2023-10-22T17:48:50.296Z,20.59
2023-10-22T17:51:17.766Z,20.71
2023-10-22T17:53:48.276Z,20.38
2023-10-22T17:56:15.680Z,20.59
2023-10-22T17:58:42.966Z,20.08
2023-10-22T18:01:10.185Z,20.40
2023-10-22T18:03:38.962Z,20.49
2023-10-22T18:06:06.961Z,20.17
2023-10-22T18:08:36.492Z,20.41
2023-10-22T18:11:04.445Z,20.42
2023-10-22T18:13:32.552Z,20.28
2023-10-22T18:15:59.700Z,19.95
2023-10-22T18:18:27.298Z,20.18
2023-10-22T18:20:56.115Z,19.87
2023-10-22T18:23:25.622Z,20.07
2023-10-22T18:26:00.385Z,19.81
2023-10-22T18:28:27.615Z,20.05
2023-10-22T18:30:54.825Z,19.79
2023-10-22T18:33:21.909Z,19.85
2023-10-22T18:35:48.997Z,19.75
2023-10-22T18:38:17.882Z,19.69
2023-10-22T18:40:48.096Z,19.55
2023-10-22T18:43:16.385Z,19.52
2023-10-22T18:45:44.222Z,19.60
2023-10-22T18:48:13.669Z,19.18
2023-10-22T18:50:40.938Z,19.38
2023-10-22T18:53:08.547Z,19.35
2023-10-22T18:55:35.811Z,19.29
2023-10-22T18:58:03.057Z,19.02
2023-10-22T19:00:30.365Z,18.63
2023-10-22T19:02:57.477Z,19.09
2023-10-22T19:05:24.654Z,19.06
2023-10-22T19:07:51.776Z,19.10
2023-10-22T19:10:19.013Z,18.98
2023-10-22T19:12:46.186Z,18.95
2023-10-22T19:15:13.688Z,18.43
2023-10-22T19:17:42.928Z,18.85
2023-10-22T19:20:11.081Z,18.74
2023-10-22T19:22:38.326Z,18.72
2023-10-22T19:25:06.182Z,18.94
2023-10-22T19:27:38.254Z,18.79
2023-10-22T19:30:06.997Z,18.63
2023-10-22T19:32:35.139Z,18.96
2023-10-22T19:35:02.562Z,18.79
2023-10-22T19:37:29.899Z,18.79
2023-10-22T19:39:56.858Z,18.52
2023-10-22T19:42:27.188Z,18.80
2023-10-22T19:44:54.166Z,18.67
2023-10-22T19:47:21.685Z,18.67
2023-10-22T19:49:48.671Z,18.53
2023-10-22T19:52:29.630Z,18.68
2023-10-22T19:55:01.290Z,18.43
2023-10-22T19:57:28.570Z,18.43
2023-10-22T19:59:55.730Z,18.25
2023-10-22T20:02:22.806Z,18.36
2023-10-22T20:04:50.077Z,18.37
2023-10-22T20:07:17.151Z,18.45
2023-10-22T20:09:44.117Z,17.91
2023-10-22T20:12:11.306Z,18.29
2023-10-22T20:14:39.884Z,18.27
2023-10-22T20:17:07.660Z,18.03
2023-10-22T20:19:34.705Z,18.18
2023-10-22T20:22:01.842Z,18.26
2023-10-22T20:24:30.811Z,18.23
2023-10-22T20:27:00.506Z,18.08
2023-10-22T20:29:27.598Z,18.16
2023-10-22T20:31:54.669Z,17.92
2023-10-22T20:34:22.007Z,18.03
2023-10-22T20:36:49.390Z,18.04
2023-10-22T20:39:16.746Z,17.77
2023-10-22T20:41:43.633Z,17.84
2023-10-22T20:44:10.473Z,17.82
2023-10-22T20:46:37.595Z,17.82
2023-10-22T20:49:04.935Z,17.80
2023-10-22T20:51:32.222Z,17.76
2023-10-22T20:53:59.480Z,17.77
2023-10-22T20:56:26.607Z,17.75
2023-10-22T20:58:53.607Z,17.68
2023-10-22T21:01:22.479Z,17.46
2023-10-22T21:03:50.153Z,17.36
2023-10-22T21:06:18.219Z,17.50
2023-10-22T21:08:45.914Z,17.18
2023-10-22T21:11:13.587Z,17.31
2023-10-22T21:13:40.963Z,17.23
2023-10-22T21:16:09.449Z,17.12
2023-10-22T21:18:38.189Z,16.81
2023-10-22T21:21:05.292Z,17.14
2023-10-22T21:23:32.208Z,16.93
2023-10-22T21:26:01.738Z,16.73
2023-10-22T21:28:28.699Z,16.99
2023-10-22T21:30:58.991Z,16.94
2023-10-22T21:33:25.897Z,16.42
2023-10-22T21:36:06.263Z,16.77
2023-10-22T21:38:33.693Z,16.74
2023-10-22T21:41:01.105Z,16.68
2023-10-22T21:43:28.391Z,16.66
2023-10-22T21:46:06.635Z,16.67
2023-10-22T21:48:33.917Z,16.48
2023-10-22T21:51:00.920Z,16.60
2023-10-22T21:53:27.995Z,16.51
2023-10-22T21:55:56.260Z,16.29
2023-10-22T21:58:23.653Z,16.50
2023-10-22T22:00:50.880Z,16.53
2023-10-22T22:03:17.975Z,16.25
2023-10-22T22:05:45.099Z,16.24
2023-10-22T22:08:11.952Z,16.40
2023-10-22T22:10:39.080Z,16.17
2023-10-22T22:13:06.255Z,16.36
2023-10-22T22:15:33.394Z,16.30
2023-10-22T22:18:00.438Z,16.28
2023-10-22T22:20:27.559Z,16.22
2023-10-22T22:22:54.699Z,16.35
2023-10-22T22:25:26.612Z,16.14
2023-10-22T22:28:00.513Z,15.90
2023-10-22T22:30:27.803Z,16.04
2023-10-22T22:32:54.895Z,16.16
2023-10-22T22:35:22.305Z,16.21
2023-10-22T22:37:49.315Z,16.18
2023-10-22T22:40:16.377Z,15.97
2023-10-22T22:42:43.389Z,16.11
2023-10-22T22:45:11.906Z,16.07
2023-10-22T22:47:39.047Z,16.09
2023-10-22T22:50:07.591Z,16.01
2023-10-22T22:52:34.689Z,15.81
2023-10-22T22:55:01.730Z,15.72
2023-10-22T22:57:28.770Z,15.90
2023-10-22T23:00:06.029Z,15.89
2023-10-22T23:02:34.440Z,15.75
2023-10-22T23:05:01.820Z,15.53
2023-10-22T23:07:29.713Z,15.78
2023-10-22T23:09:56.668Z,15.79
2023-10-22T23:12:24.145Z,15.56
2023-10-22T23:14:52.906Z,15.54
2023-10-22T23:17:19.834Z,15.47
2023-10-22T23:19:47.258Z,15.62
2023-10-22T23:22:14.364Z,15.58
2023-10-22T23:24:41.685Z,15.39
2023-10-22T23:27:09.247Z,15.39
2023-10-22T23:29:36.483Z,15.57
2023-10-22T23:32:04.104Z,15.60
2023-10-22T23:34:31.177Z,15.53
2023-10-22T23:36:58.196Z,15.39
2023-10-22T23:39:25.657Z,15.19
2023-10-22T23:41:53.120Z,15.17
2023-10-22T23:44:20.089Z,15.11
2023-10-22T23:46:47.157Z,15.22
2023-10-22T23:49:14.088Z,15.08
2023-10-22T23:51:41.096Z,14.91
2023-10-22T23:54:08.163Z,15.07
2023-10-22T23:56:35.118Z,15.17
2023-10-22T23:59:04.868Z,15.04
